Time;durP1;ratioP1;P1;durP2;ratioP2;P2;SDS_P1;SDS_P2;PMS_P1;PMS_P2;Temp;Humidity;BMP_temperature;BMP_pressure;BME280_temperature;BME280_humidity;BME280_pressure;Samples;Min_cycle;Max_cycle;Signal;HPM_P1;HPM_P2
2022/10/01 00:02:15;;;;;;;2.67;2.07;;;;;;;6.85;100.00;97635.94;18237308;32;20366;-62
2022/10/01 00:12:17;;;;;;;4.40;3.40;;;;;;;6.78;100.00;97617.31;18236744;32;20068;-63
2022/10/01 00:22:20;;;;;;;4.63;3.20;;;;;;;6.76;100.00;97625.63;18236295;32;20063;-63
2022/10/01 00:32:23;;;;;;;5.23;2.83;;;;;;;6.69;100.00;97635.72;18235997;32;20117;-63
2022/10/01 00:42:26;;;;;;;3.40;2.70;;;;;;;6.59;100.00;97609.53;18235627;32;20073;-63
2022/10/01 00:52:31;;;;;;;3.90;1.90;;;;;;;6.52;100.00;97614.22;18233911;32;20055;-62
2022/10/01 01:02:34;;;;;;;2.20;2.00;;;;;;;6.53;100.00;97649.97;18233993;32;20050;-63
2022/10/01 01:12:55;;;;;;;4.50;2.10;;;;;;;6.57;100.00;97635.00;18234042;32;20438;-63
2022/10/01 01:23:22;;;;;;;4.10;2.63;;;;;;;6.57;100.00;97618.88;18233218;32;20066;-62
2022/10/01 01:33:27;;;;;;;4.90;2.40;;;;;;;6.58;100.00;97618.62;18233474;32;20076;-63
2022/10/01 01:43:35;;;;;;;5.80;2.50;;;;;;;6.60;100.00;97615.69;18232270;32;20382;-62
2022/10/01 01:53:38;;;;;;;2.73;2.23;;;;;;;6.63;100.00;97607.16;18232635;32;20343;-63
2022/10/01 02:03:41;;;;;;;3.23;2.47;;;;;;;6.66;100.00;97592.41;18231874;32;20046;-63
2022/10/01 02:14:14;;;;;;;2.83;2.17;;;;;;;6.72;100.00;97581.50;18230203;32;20051;-63
2022/10/01 02:24:30;;;;;;;2.73;2.20;;;;;;;6.75;100.00;97590.94;18231458;32;20076;-63
2022/10/01 02:34:33;;;;;;;4.43;2.47;;;;;;;6.82;100.00;97570.06;18167827;32;20390;-63
2022/10/01 02:44:41;;;;;;;2.70;2.10;;;;;;;6.85;100.00;97576.81;18169135;32;20496;-63
2022/10/01 02:54:52;;;;;;;3.73;2.53;;;;;;;6.94;100.00;97551.16;18168490;32;20131;-63
2022/10/01 03:04:58;;;;;;;2.70;1.90;;;;;;;6.94;100.00;97556.53;18226477;32;20126;-63
2022/10/01 03:15:01;;;;;;;2.87;1.83;;;;;;;6.92;100.00;97540.66;18239505;32;20066;-63
2022/10/01 03:25:04;;;;;;;4.03;1.67;;;;;;;6.95;100.00;97547.41;18238859;32;20062;-63
2022/10/01 03:35:07;;;;;;;2.80;2.07;;;;;;;6.99;100.00;97553.91;18237504;32;20077;-62
2022/10/01 03:45:10;;;;;;;1.80;1.50;;;;;;;7.04;100.00;97539.72;18237704;32;20090;-62
2022/10/01 03:55:12;;;;;;;1.90;1.70;;;;;;;7.06;100.00;97546.47;18237236;32;20531;-63
2022/10/01 04:05:14;;;;;;;2.00;1.40;;;;;;;7.13;100.00;97548.97;18237229;32;20046;-63
2022/10/01 04:15:17;;;;;;;2.43;1.50;;;;;;;7.21;100.00;97561.13;18236911;32;20114;-63
2022/10/01 04:25:19;;;;;;;2.00;1.37;;;;;;;7.33;100.00;97558.31;18236524;32;20102;-63
2022/10/01 04:35:21;;;;;;;3.07;1.27;;;;;;;7.41;100.00;97557.88;18234851;32;20416;-63
2022/10/01 04:45:24;;;;;;;1.37;1.00;;;;;;;7.50;100.00;97550.19;18235466;32;20054;-63
2022/10/01 04:55:26;;;;;;;1.67;0.97;;;;;;;7.55;100.00;97555.59;18233882;32;20058;-63
2022/10/01 05:05:31;;;;;;;2.03;1.00;;;;;;;7.60;100.00;97547.59;18234800;32;20098;-63
2022/10/01 05:15:34;;;;;;;1.50;0.97;;;;;;;7.68;100.00;97536.38;18234485;32;20066;-63
2022/10/01 05:25:37;;;;;;;1.83;1.00;;;;;;;7.69;100.00;97535.31;18233771;32;20464;-63
2022/10/01 05:35:43;;;;;;;1.00;0.90;;;;;;;7.77;100.00;97539.41;18233409;32;20161;-62
2022/10/01 05:45:45;;;;;;;1.53;0.80;;;;;;;7.86;100.00;97542.47;18232903;32;20084;-63
2022/10/01 05:55:48;;;;;;;1.57;0.73;;;;;;;7.92;100.00;97555.72;18231812;32;20098;-63
2022/10/01 06:05:51;;;;;;;3.93;0.70;;;;;;;8.04;100.00;97554.72;18231814;32;20354;-63
2022/10/01 06:15:54;;;;;;;0.77;0.63;;;;;;;8.12;100.00;97555.06;18230384;32;20068;-63
2022/10/01 06:25:59;;;;;;;0.80;0.57;;;;;;;8.21;100.00;97559.97;18231251;32;20051;-63
2022/10/01 06:36:03;;;;;;;0.90;0.67;;;;;;;8.29;100.00;97562.19;18230552;32;20073;-63
2022/10/01 06:46:06;;;;;;;0.93;0.60;;;;;;;8.34;100.00;97559.53;18228922;32;20059;-63
2022/10/01 06:56:08;;;;;;;1.03;0.57;;;;;;;8.46;100.00;97565.59;18228624;32;20107;-63
2022/10/01 07:06:11;;;;;;;0.60;0.47;;;;;;;8.57;100.00;97554.91;18229417;32;20054;-63
2022/10/01 07:16:14;;;;;;;0.90;0.60;;;;;;;8.71;100.00;97539.87;18159822;32;20446;-63
2022/10/01 07:26:17;;;;;;;1.23;0.70;;;;;;;8.83;100.00;97555.84;18167200;32;20401;-63
2022/10/01 07:36:20;;;;;;;1.17;0.90;;;;;;;8.96;100.00;97557.25;18166703;32;20450;-63
2022/10/01 07:46:22;;;;;;;1.73;1.17;;;;;;;9.05;100.00;97560.28;18210552;32;20134;-62
2022/10/01 07:56:25;;;;;;;3.07;1.40;;;;;;;9.13;100.00;97533.59;18236296;32;20077;-63
2022/10/01 08:06:28;;;;;;;2.43;1.20;;;;;;;9.21;100.00;97537.69;18236098;32;20043;-63
2022/10/01 08:16:32;;;;;;;2.30;1.90;;;;;;;9.23;100.00;97529.34;18236914;32;20054;-63
2022/10/01 08:26:35;;;;;;;2.03;1.73;;;;;;;9.38;100.00;97531.28;18235230;32;20050;-63
2022/10/01 08:36:37;;;;;;;4.00;2.20;;;;;;;9.46;100.00;97531.56;18234779;32;20401;-63
2022/10/01 08:46:40;;;;;;;6.43;2.20;;;;;;;9.62;100.00;97518.09;18234221;32;20095;-63
2022/10/01 08:56:46;;;;;;;3.73;2.60;;;;;;;9.70;100.00;97506.75;18234708;32;20100;-63
2022/10/01 09:06:58;;;;;;;3.60;2.43;;;;;;;9.77;100.00;97507.31;18233881;32;20050;-63
2022/10/01 09:17:29;;;;;;;3.63;2.47;;;;;;;10.02;100.00;97513.81;18234305;32;20085;-63
2022/10/01 09:27:33;;;;;;;3.45;2.35;;;;;;;10.34;100.00;97524.34;18233906;32;20088;-63
2022/10/01 09:37:48;;;;;;;4.27;2.00;;;;;;;10.53;100.00;97550.03;18232655;32;20088;-63
2022/10/01 09:47:54;;;;;;;2.47;1.83;;;;;;;10.61;100.00;97560.28;18231669;32;20120;-63
2022/10/01 09:58:03;;;;;;;3.35;2.10;;;;;;;10.87;100.00;97562.94;18231942;32;20332;-63
2022/10/01 10:08:19;;;;;;;3.37;1.55;;;;;;;10.96;100.00;97553.16;18231948;32;20047;-63
2022/10/01 10:18:37;;;;;;;5.15;1.60;;;;;;;11.02;100.00;97558.28;18230570;32;20095;-63
2022/10/01 10:28:44;;;;;;;2.10;1.75;;;;;;;10.94;100.00;97560.75;18217512;32;20108;-63
2022/10/01 10:38:52;;;;;;;3.72;2.00;;;;;;;10.92;100.00;97573.75;18230647;32;20091;-63
2022/10/01 10:49:04;;;;;;;5.60;2.12;;;;;;;10.90;100.00;97563.19;18158817;32;20070;-63
2022/10/01 10:59:09;;;;;;;3.40;2.08;;;;;;;10.87;100.00;97557.50;18168562;32;20431;-63
2022/10/01 11:09:17;;;;;;;5.32;2.55;;;;;;;10.74;100.00;97594.06;18168199;32;20101;-63
2022/10/01 11:19:37;;;;;;;2.65;2.05;;;;;;;10.79;100.00;97586.75;18155326;32;20058;-63
2022/10/01 11:29:53;;;;;;;3.67;1.77;;;;;;;10.80;100.00;97591.09;18239261;32;20110;-63
2022/10/01 11:40:01;;;;;;;2.60;1.85;;;;;;;10.87;100.00;97595.38;18212411;32;20490;-63
2022/10/01 11:50:17;;;;;;;5.18;2.17;;;;;;;10.95;100.00;97617.28;18224688;32;20413;-63
2022/10/01 12:00:21;;;;;;;1.73;1.48;;;;;;;10.99;100.00;97612.12;18237175;32;20426;-63
2022/10/01 12:10:39;;;;;;;3.47;1.67;;;;;;;11.04;100.00;97622.16;18236179;32;20057;-63
2022/10/01 12:20:52;;;;;;;4.97;2.20;;;;;;;11.12;100.00;97610.75;18235635;32;20072;-63
2022/10/01 12:31:03;;;;;;;3.50;2.50;;;;;;;11.17;100.00;97625.09;18235517;32;20104;-63
2022/10/01 12:41:09;;;;;;;3.00;1.98;;;;;;;11.18;100.00;97632.13;18223158;32;20073;-63
2022/10/01 12:51:39;;;;;;;2.95;2.12;;;;;;;11.18;100.00;97642.97;18162830;32;20135;-63
2022/10/01 13:01:47;;;;;;;2.33;1.80;;;;;;;11.28;100.00;97646.72;18163112;32;20125;-63
2022/10/01 13:12:29;;;;;;;2.97;1.77;;;;;;;11.32;100.00;97654.00;18161302;32;20101;-63
2022/10/01 13:22:43;;;;;;;1.92;1.70;;;;;;;11.48;100.00;97652.06;18227582;32;20489;-62
2022/10/01 13:32:53;;;;;;;3.10;2.50;;;;;;;11.64;100.00;97655.50;18233587;32;20069;-63
2022/10/01 13:42:58;;;;;;;2.78;2.05;;;;;;;11.76;100.00;97663.34;18086274;32;20458;-63
2022/10/01 13:53:17;;;;;;;3.15;1.80;;;;;;;12.00;100.00;97662.69;18097854;32;20427;-63
2022/10/01 14:03:33;;;;;;;3.33;2.03;;;;;;;12.27;100.00;97666.88;18035674;32;20102;-63
2022/10/01 14:24:20;;;;;;;1.30;0.77;;;;;;;12.82;100.00;97653.97;18160488;32;20111;-63
2022/10/01 14:34:48;;;;;;;0.30;0.20;;;;;;;12.93;100.00;97673.69;18174509;32;20054;-63
2022/10/01 14:44:51;;;;;;;0.40;0.10;;;;;;;13.14;100.00;97695.22;18241240;32;20058;-63
2022/10/01 14:55:02;;;;;;;0.50;0.28;;;;;;;13.25;100.00;97695.94;18238896;32;20047;-63
2022/10/01 15:05:19;;;;;;;0.32;0.10;;;;;;;13.47;100.00;97706.31;18238858;32;20062;-63
2022/10/01 15:15:33;;;;;;;0.30;0.10;;;;;;;13.73;100.00;97712.28;18238618;32;20054;-63
2022/10/01 15:25:35;;;;;;;0.20;0.20;;;;;;;14.05;100.00;97717.06;18167337;32;20105;-63
2022/10/01 15:35:38;;;;;;;1.85;1.12;;;;;;;14.07;100.00;97733.09;18166178;32;20123;-63
2022/10/01 15:45:41;;;;;;;1.00;0.70;;;;;;;13.92;100.00;97734.06;18141429;32;20086;-63
2022/10/01 15:55:54;;;;;;;1.08;0.70;;;;;;;13.90;100.00;97722.69;18176202;32;20472;-63
2022/10/01 16:06:00;;;;;;;1.40;1.17;;;;;;;13.73;100.00;97734.03;18237942;32;20355;-63
2022/10/01 16:16:12;;;;;;;2.42;1.70;;;;;;;13.59;100.00;97754.84;18236025;32;20092;-63
2022/10/01 16:26:31;;;;;;;3.45;1.70;;;;;;;13.45;100.00;97771.00;18164381;32;20388;-63
2022/10/01 16:36:36;;;;;;;1.83;1.30;;;;;;;13.28;100.00;97796.66;18164076;32;20062;-63
2022/10/01 16:46:40;;;;;;;0.75;0.43;;;;;;;13.19;100.00;97796.44;18163520;32;20066;-63
2022/10/01 16:56:43;;;;;;;0.93;0.40;;;;;;;13.14;100.00;97788.34;18210973;32;20084;-63
2022/10/01 17:06:45;;;;;;;0.30;0.10;;;;;;;13.07;100.00;97797.91;18233675;32;20050;-63
2022/10/01 17:16:49;;;;;;;0.25;0.10;;;;;;;13.00;100.00;97817.22;18233142;32;20073;-63
2022/10/01 17:26:52;;;;;;;0.33;0.10;;;;;;;12.98;100.00;97833.00;18234415;32;20050;-63
2022/10/01 17:36:55;;;;;;;0.30;0.00;;;;;;;12.95;100.00;97830.81;18233799;32;20054;-63
2022/10/01 17:46:57;;;;;;;0.10;0.00;;;;;;;12.87;100.00;97848.53;18232713;32;20069;-63
2022/10/01 17:57:00;;;;;;;0.20;0.10;;;;;;;12.79;100.00;97874.34;18231035;32;20107;-63
2022/10/01 18:07:06;;;;;;;0.68;0.00;;;;;;;12.77;100.00;97892.81;18231997;32;20102;-63
2022/10/01 18:17:09;;;;;;;4.50;0.20;;;;;;;12.74;100.00;97925.09;18231704;32;20054;-63
2022/10/01 18:27:12;;;;;;;0.20;0.10;;;;;;;12.75;100.00;97932.97;18231371;32;20122;-63
2022/10/01 18:37:27;;;;;;;0.30;0.20;;;;;;;12.79;100.00;97944.09;18229315;32;20043;-63
2022/10/01 18:47:57;;;;;;;0.40;0.10;;;;;;;12.82;100.00;97971.47;18230621;32;20431;-63
2022/10/01 18:58:18;;;;;;;1.87;1.05;;;;;;;12.83;100.00;97989.37;18229667;32;20422;-63
2022/10/01 19:08:24;;;;;;;2.87;1.70;;;;;;;12.84;100.00;97988.28;18229729;32;20061;-63
2022/10/01 19:18:33;;;;;;;2.40;1.48;;;;;;;12.80;100.00;98006.22;18238524;32;20102;-63
2022/10/01 19:29:06;;;;;;;2.70;1.73;;;;;;;12.69;100.00;98013.56;18239101;32;20358;-63
2022/10/01 19:39:20;;;;;;;2.78;1.62;;;;;;;12.56;100.00;98022.28;18238669;32;20106;-63
2022/10/01 19:49:30;;;;;;;2.37;1.60;;;;;;;12.35;100.00;98048.63;18091717;32;20567;-63
2022/10/01 19:59:33;;;;;;;1.90;1.37;;;;;;;12.26;100.00;98061.09;18103671;32;20122;-63
2022/10/01 20:09:41;;;;;;;2.80;1.62;;;;;;;12.22;100.00;98090.63;18090804;32;20067;-63
2022/10/01 20:20:21;;;;;;;1.62;1.20;;;;;;;12.20;100.00;98106.38;18212159;32;20058;-63
2022/10/01 20:30:26;;;;;;;1.83;1.20;;;;;;;12.20;100.00;98119.91;18236328;32;20086;-63
2022/10/01 20:40:35;;;;;;;2.33;1.60;;;;;;;12.22;100.00;98133.19;18236234;32;20074;-63
2022/10/01 20:50:45;;;;;;;2.00;1.30;;;;;;;12.25;100.00;98124.53;18235501;32;20047;-63
2022/10/01 21:00:50;;;;;;;1.50;0.95;;;;;;;12.26;100.00;98137.00;18235079;32;20066;-63
2022/10/01 21:10:58;;;;;;;1.27;0.90;;;;;;;12.27;100.00;98155.72;18150119;32;20131;-63
2022/10/01 21:21:17;;;;;;;3.65;1.52;;;;;;;12.29;100.00;98153.56;18149721;32;20125;-63
2022/10/01 21:31:22;;;;;;;2.85;0.93;;;;;;;12.43;100.00;98178.25;18161617;32;20081;-63
2022/10/01 21:41:52;;;;;;;1.67;0.98;;;;;;;12.42;100.00;98163.06;18161222;32;20098;-63
2022/10/01 21:52:20;;;;;;;0.98;0.62;;;;;;;12.31;100.00;98183.12;18233090;32;20494;-63
2022/10/01 22:02:34;;;;;;;0.82;0.50;;;;;;;12.30;100.00;98184.19;18232537;32;20104;-63
2022/10/01 22:12:41;;;;;;;0.67;0.33;;;;;;;12.27;100.00;98199.09;18232026;32;20062;-63
2022/10/01 22:22:44;;;;;;;1.58;0.73;;;;;;;12.25;100.00;98200.44;18231617;32;20071;-63
2022/10/01 22:32:59;;;;;;;1.00;0.60;;;;;;;12.13;100.00;98217.78;18231302;32;20059;-63
2022/10/01 22:43:07;;;;;;;1.05;0.60;;;;;;;12.07;100.00;98221.53;18230944;32;20081;-63
2022/10/01 22:53:26;;;;;;;1.02;0.70;;;;;;;12.02;100.00;98222.34;18240250;32;20369;-63
2022/10/01 23:03:48;;;;;;;0.85;0.57;;;;;;;11.95;100.00;98220.94;18240779;32;20062;-63
2022/10/01 23:13:51;;;;;;;0.40;0.30;;;;;;;11.81;100.00;98229.56;18240195;32;20062;-63
2022/10/01 23:24:17;;;;;;;0.93;0.47;;;;;;;11.68;100.00;98247.09;18238224;32;20058;-63
2022/10/01 23:34:46;;;;;;;0.55;0.40;;;;;;;11.56;100.00;98259.22;18237612;32;20080;-63
2022/10/01 23:45:12;;;;;;;0.45;0.20;;;;;;;11.47;100.00;98265.13;18238398;32;20084;-63
